createdAt,value
2024-04-11T00:00:40.397Z,9.50
2024-04-11T00:03:07.846Z,12.88
2024-04-11T00:05:35.368Z,13.30
2024-04-11T00:08:02.734Z,12.75
2024-04-11T00:10:30.144Z,16.63
2024-04-11T00:12:57.473Z,10.23
2024-04-11T00:15:24.813Z,12.55
2024-04-11T00:17:52.693Z,8.73
2024-04-11T00:20:20.716Z,6.82
2024-04-11T00:22:52.162Z,16.20
2024-04-11T00:25:19.558Z,8.45
2024-04-11T00:27:47.158Z,16.98
2024-04-11T00:30:15.682Z,12.75
2024-04-11T00:32:44.481Z,11.80
2024-04-11T00:35:12.199Z,16.23
2024-04-11T00:37:39.661Z,15.25
2024-04-11T00:40:07.373Z,19.75
2024-04-11T00:42:35.422Z,9.90
2024-04-11T00:45:02.945Z,13.50
2024-04-11T00:47:30.915Z,16.77
2024-04-11T00:49:58.642Z,17.65
2024-04-11T00:52:26.187Z,12.77
2024-04-11T00:54:54.487Z,15.40
2024-04-11T00:57:22.809Z,13.48
2024-04-11T00:59:50.528Z,16.13
2024-04-11T01:02:18.245Z,13.65
2024-04-11T01:04:45.964Z,14.40
2024-04-11T01:07:14.365Z,18.13
2024-04-11T01:09:45.838Z,17.38
2024-04-11T01:12:15.919Z,19.00
2024-04-11T01:14:45.120Z,14.30
2024-04-11T01:17:17.802Z,18.48
2024-04-11T01:19:48.848Z,21.77
2024-04-11T01:22:17.050Z,15.80
2024-04-11T01:24:44.442Z,15.88
2024-04-11T01:27:13.744Z,15.27
2024-04-11T01:29:41.423Z,13.88
2024-04-11T01:32:10.067Z,16.58
2024-04-11T01:34:38.774Z,12.48
2024-04-11T01:37:06.584Z,11.18
2024-04-11T01:39:33.972Z,11.63
2024-04-11T01:42:05.718Z,18.10
2024-04-11T01:44:33.340Z,17.30
2024-04-11T01:47:00.778Z,16.92
2024-04-11T01:49:33.211Z,13.10
2024-04-11T01:52:00.812Z,17.13
2024-04-11T01:54:28.140Z,12.05
2024-04-11T01:56:55.669Z,14.43
2024-04-11T01:59:23.171Z,15.68
2024-04-11T02:01:50.621Z,28.65
2024-04-11T02:04:18.091Z,14.02
2024-04-11T02:06:45.467Z,15.75
2024-04-11T02:09:13.550Z,19.02
2024-04-11T02:11:48.218Z,17.50
2024-04-11T02:14:15.965Z,18.05
2024-04-11T02:16:43.434Z,17.98
2024-04-11T02:19:12.399Z,18.92
2024-04-11T02:21:44.462Z,15.90
2024-04-11T02:24:18.175Z,20.05
2024-04-11T02:26:49.576Z,13.70
2024-04-11T02:29:18.421Z,24.55
2024-04-11T02:31:49.319Z,20.70
2024-04-11T02:34:20.929Z,25.67
2024-04-11T02:36:49.143Z,24.30
2024-04-11T02:39:18.550Z,17.40
2024-04-11T02:41:46.490Z,21.45
2024-04-11T02:44:15.606Z,28.85
2024-04-11T02:46:42.967Z,21.40
2024-04-11T02:49:10.920Z,18.13
2024-04-11T02:51:38.816Z,23.90
2024-04-11T02:54:10.919Z,62.25
2024-04-11T02:59:12.992Z,33.10
2024-04-11T03:01:40.574Z,21.00
2024-04-11T03:04:08.279Z,22.40
2024-04-11T03:06:36.884Z,22.17
2024-04-11T03:09:06.970Z,28.90
2024-04-11T03:11:36.457Z,19.70
2024-04-11T03:14:04.022Z,26.73
2024-04-11T03:16:32.383Z,24.98
2024-04-11T03:19:00.973Z,21.77
2024-04-11T03:21:28.549Z,23.85
2024-04-11T03:23:56.562Z,23.75
2024-04-11T03:26:24.053Z,19.77
2024-04-11T03:28:51.512Z,23.20
2024-04-11T03:31:22.661Z,21.40
2024-04-11T03:33:58.692Z,25.90
2024-04-11T03:36:27.488Z,28.50
2024-04-11T03:38:56.298Z,22.08
2024-04-11T03:41:24.081Z,30.58
2024-04-11T03:43:57.991Z,25.58
2024-04-11T03:46:25.966Z,19.90
2024-04-11T03:48:58.726Z,20.92
2024-04-11T03:51:51.512Z,16.23
2024-04-11T03:56:46.219Z,20.05
2024-04-11T03:59:13.655Z,27.98
2024-04-11T04:01:42.430Z,39.70
2024-04-11T04:04:09.922Z,35.40
2024-04-11T04:06:37.713Z,16.65
2024-04-11T04:09:10.723Z,19.25
2024-04-11T04:11:40.201Z,27.48
2024-04-11T04:14:10.514Z,16.80
2024-04-11T04:16:40.555Z,24.75
2024-04-11T04:19:09.189Z,24.13
2024-04-11T04:21:37.470Z,21.02
2024-04-11T04:24:08.170Z,24.15
2024-04-11T04:26:36.954Z,23.02
2024-04-11T04:29:05.771Z,15.98
2024-04-11T04:31:35.060Z,13.80
2024-04-11T04:34:09.542Z,21.20
2024-04-11T04:36:44.203Z,14.93
2024-04-11T04:39:16.409Z,20.80
2024-04-11T04:41:46.491Z,22.42
2024-04-11T04:44:14.182Z,18.92
2024-04-11T04:46:43.129Z,21.23
2024-04-11T04:49:12.229Z,18.92
2024-04-11T04:51:40.980Z,19.73
2024-04-11T04:54:13.535Z,18.90
2024-04-11T04:56:45.403Z,18.48
2024-04-11T04:59:14.060Z,20.08
2024-04-11T05:01:43.071Z,25.05
2024-04-11T05:04:16.529Z,16.05
2024-04-11T05:06:45.090Z,20.75
2024-04-11T05:09:12.546Z,30.15
2024-04-11T05:11:40.833Z,18.80
2024-04-11T05:14:09.508Z,19.20
2024-04-11T05:16:37.735Z,21.02
2024-04-11T05:19:05.917Z,21.33
2024-04-11T05:21:34.794Z,25.08
2024-04-11T05:24:03.180Z,22.33
2024-04-11T05:26:32.031Z,20.48
2024-04-11T05:29:00.779Z,18.40
2024-04-11T05:31:28.614Z,21.33
2024-04-11T05:34:09.498Z,32.95
2024-04-11T05:36:42.154Z,22.55
2024-04-11T05:39:11.323Z,27.00
2024-04-11T05:41:39.565Z,30.42
2024-04-11T05:44:08.682Z,23.00
2024-04-11T05:46:37.006Z,17.02
2024-04-11T05:49:08.295Z,17.63
2024-04-11T05:51:37.036Z,26.70
2024-04-11T05:54:05.327Z,27.77
2024-04-11T05:56:36.161Z,22.23
2024-04-11T05:59:03.858Z,20.50
2024-04-11T06:01:36.040Z,20.63
2024-04-11T06:04:07.400Z,19.85
2024-04-11T06:06:34.941Z,33.88
2024-04-11T06:09:03.979Z,25.63
2024-04-11T06:11:31.793Z,32.08
2024-04-11T06:13:59.293Z,24.75
2024-04-11T06:16:26.885Z,24.52
2024-04-11T06:18:56.607Z,28.83
2024-04-11T06:21:34.392Z,28.23
2024-04-11T06:24:06.352Z,22.83
2024-04-11T06:26:35.120Z,22.17
2024-04-11T06:29:03.479Z,32.75
2024-04-11T06:31:32.454Z,32.70
2024-04-11T06:34:00.498Z,18.95
2024-04-11T06:36:28.192Z,25.20
2024-04-11T06:38:56.296Z,27.88
2024-04-11T06:41:24.194Z,22.63
2024-04-11T06:43:53.606Z,23.33
2024-04-11T06:46:23.197Z,25.83
2024-04-11T06:48:51.033Z,27.05
2024-04-11T06:51:21.111Z,23.67
2024-04-11T06:53:48.835Z,14.95
2024-04-11T06:56:19.373Z,16.85
2024-04-11T06:58:50.852Z,20.77
2024-04-11T07:01:21.276Z,16.35
2024-04-11T07:03:51.043Z,24.50
2024-04-11T07:06:23.791Z,18.25
2024-04-11T07:08:53.960Z,15.25
2024-04-11T07:11:22.342Z,21.25
2024-04-11T07:13:57.310Z,13.50
2024-04-11T07:16:34.319Z,12.90
2024-04-11T07:19:04.374Z,17.90
2024-04-11T07:21:35.726Z,18.70
2024-04-11T07:24:05.661Z,16.75
2024-04-11T07:26:35.188Z,16.92
2024-04-11T07:29:07.912Z,14.40
2024-04-11T07:31:38.222Z,16.98
2024-04-11T07:34:06.333Z,17.13
2024-04-11T07:36:41.679Z,21.38
2024-04-11T07:39:10.685Z,14.20
2024-04-11T07:41:48.174Z,21.08
2024-04-11T07:44:25.123Z,27.27
2024-04-11T07:47:06.057Z,25.40
2024-04-11T07:49:50.935Z,14.68
2024-04-11T07:52:18.352Z,17.30
2024-04-11T07:54:48.320Z,17.77
2024-04-11T07:57:18.910Z,14.65
2024-04-11T07:59:47.923Z,16.67
2024-04-11T08:02:16.359Z,14.18
2024-04-11T08:04:44.053Z,14.35
2024-04-11T08:07:11.479Z,19.73
2024-04-11T08:09:57.092Z,18.10
2024-04-11T08:12:24.944Z,15.77
2024-04-11T08:14:53.782Z,14.80
2024-04-11T08:17:22.094Z,15.27
2024-04-11T08:19:56.652Z,19.25
2024-04-11T08:22:33.516Z,16.73
2024-04-11T08:25:00.902Z,22.42
2024-04-11T08:27:28.851Z,22.23
2024-04-11T08:29:56.446Z,19.05
2024-04-11T08:32:24.225Z,24.38
2024-04-11T08:34:53.476Z,20.45
2024-04-11T08:37:21.119Z,13.70
2024-04-11T08:39:48.786Z,12.68
2024-04-11T08:42:16.542Z,14.50
2024-04-11T08:44:47.387Z,16.02
2024-04-11T08:47:16.059Z,18.38
2024-04-11T08:49:44.827Z,10.88
2024-04-11T08:52:16.696Z,27.40
2024-04-11T08:54:45.760Z,19.38
2024-04-11T08:57:14.365Z,13.98
2024-04-11T08:59:47.338Z,24.58
2024-04-11T09:02:14.980Z,22.75
2024-04-11T09:04:42.420Z,21.73
2024-04-11T09:07:22.350Z,16.20
2024-04-11T09:09:53.660Z,17.00
2024-04-11T09:12:24.978Z,11.15
2024-04-11T09:14:52.500Z,13.93
2024-04-11T09:17:22.367Z,12.82
2024-04-11T09:19:51.182Z,12.20
2024-04-11T09:22:23.148Z,17.60
2024-04-11T09:24:52.353Z,14.55
2024-04-11T09:27:21.917Z,10.80
2024-04-11T09:29:49.622Z,16.10
2024-04-11T09:32:23.178Z,12.30
2024-04-11T09:34:53.716Z,11.02
2024-04-11T09:37:25.070Z,15.80
2024-04-11T09:39:58.791Z,11.90
2024-04-11T09:42:31.586Z,16.63
2024-04-11T09:45:01.530Z,17.42
2024-04-11T09:47:30.568Z,12.70
2024-04-11T09:50:04.878Z,18.95
2024-04-11T09:52:39.335Z,20.73
2024-04-11T09:55:11.527Z,12.27
2024-04-11T09:57:46.775Z,8.85
2024-04-11T10:00:40.857Z,15.75
2024-04-11T10:03:08.948Z,11.77
2024-04-11T10:05:41.573Z,11.50
2024-04-11T10:08:18.482Z,10.82
2024-04-11T10:10:54.362Z,15.07
2024-04-11T10:13:25.058Z,12.00
2024-04-11T10:16:15.506Z,10.82
2024-04-11T10:18:53.324Z,17.52
2024-04-11T10:21:37.238Z,14.13
2024-04-11T10:24:28.697Z,11.13
2024-04-11T10:26:59.238Z,18.77
2024-04-11T10:29:28.570Z,12.15
2024-04-11T10:31:59.762Z,19.88
2024-04-11T10:34:36.299Z,12.32
2024-04-11T10:37:09.239Z,12.27
2024-04-11T10:39:37.538Z,15.07
2024-04-11T10:42:11.677Z,11.18
2024-04-11T10:44:39.423Z,12.10
2024-04-11T10:47:15.367Z,9.25
2024-04-11T10:49:43.000Z,14.85
2024-04-11T10:52:11.744Z,17.63
2024-04-11T10:54:45.181Z,14.55
2024-04-11T10:57:13.682Z,15.48
2024-04-11T10:59:52.022Z,10.02
2024-04-11T11:02:24.629Z,11.73
2024-04-11T11:04:56.317Z,15.30
2024-04-11T11:07:33.067Z,11.02
2024-04-11T11:10:05.742Z,18.73
2024-04-11T11:12:36.390Z,13.00
2024-04-11T11:15:05.500Z,9.52
2024-04-11T11:17:33.056Z,11.15
2024-04-11T11:20:00.558Z,18.58
2024-04-11T11:22:35.561Z,14.38
2024-04-11T11:25:10.623Z,10.30
2024-04-11T11:27:40.135Z,14.38
2024-04-11T11:30:17.739Z,10.90
2024-04-11T11:32:45.771Z,15.90
2024-04-11T11:35:13.724Z,10.68
2024-04-11T11:37:41.215Z,12.52
2024-04-11T11:40:27.875Z,15.55
2024-04-11T11:42:58.695Z,11.98
2024-04-11T11:45:29.514Z,11.23
2024-04-11T11:48:15.178Z,20.92
2024-04-11T11:50:45.546Z,10.77
2024-04-11T11:53:33.602Z,22.05
2024-04-11T11:56:07.383Z,11.25
2024-04-11T11:58:37.770Z,13.40
2024-04-11T12:01:22.025Z,11.00
2024-04-11T12:03:57.985Z,14.02
2024-04-11T12:06:26.677Z,10.07
2024-04-11T12:08:55.576Z,9.50
2024-04-11T12:11:30.053Z,10.00
2024-04-11T12:14:04.813Z,10.90
2024-04-11T12:16:42.892Z,10.02
2024-04-11T12:19:11.239Z,9.35
2024-04-11T12:21:46.583Z,18.35
2024-04-11T12:24:14.620Z,10.80
2024-04-11T12:26:43.084Z,16.15
2024-04-11T12:29:12.820Z,11.18
2024-04-11T12:31:40.323Z,10.00
2024-04-11T12:34:11.032Z,22.35
2024-04-11T12:36:58.610Z,15.52
2024-04-11T12:39:42.558Z,12.25
2024-04-11T12:42:12.677Z,11.20
2024-04-11T12:44:40.383Z,18.33
2024-04-11T12:47:18.228Z,9.38
2024-04-11T12:49:49.769Z,11.63
2024-04-11T12:52:25.450Z,8.82
2024-04-11T12:55:00.633Z,8.48
2024-04-11T12:57:32.209Z,9.43
2024-04-11T13:00:19.805Z,6.68
2024-04-11T13:02:49.995Z,12.23
2024-04-11T13:05:17.430Z,10.85
2024-04-11T13:07:48.025Z,12.27
2024-04-11T13:10:15.711Z,9.75
2024-04-11T13:12:46.939Z,7.35
2024-04-11T13:17:54.688Z,9.48
2024-04-11T13:20:30.771Z,4.20
2024-04-11T13:23:12.248Z,4.20
2024-04-11T13:25:47.142Z,4.68
2024-04-11T13:28:14.764Z,4.10
2024-04-11T13:30:48.268Z,4.88
2024-04-11T13:33:19.669Z,3.00
2024-04-11T13:35:51.624Z,2.75
2024-04-11T13:38:26.105Z,3.20
2024-04-11T13:41:03.146Z,4.55
2024-04-11T13:43:31.167Z,4.07
2024-04-11T13:46:08.677Z,4.43
2024-04-11T13:48:45.168Z,4.50
2024-04-11T13:51:16.925Z,4.57
2024-04-11T13:53:56.610Z,3.03
2024-04-11T13:56:31.352Z,1.23
2024-04-11T13:59:09.398Z,3.72
2024-04-11T14:01:44.574Z,3.40
2024-04-11T14:04:18.742Z,2.15
2024-04-11T14:06:52.669Z,1.83
2024-04-11T14:09:21.403Z,0.40
2024-04-11T14:11:50.562Z,0.75
2024-04-11T14:14:28.134Z,2.55
2024-04-11T14:16:56.874Z,2.00
2024-04-11T14:19:40.349Z,1.55
2024-04-11T14:22:35.135Z,3.00
2024-04-11T14:25:11.580Z,5.80
2024-04-11T14:27:40.324Z,2.58
2024-04-11T14:30:08.540Z,1.33
2024-04-11T14:32:54.675Z,1.75
2024-04-11T14:35:26.854Z,3.03
2024-04-11T14:37:58.410Z,0.57
2024-04-11T14:40:25.795Z,2.15
2024-04-11T14:42:55.406Z,2.53
2024-04-11T14:45:24.209Z,1.23
2024-04-11T14:47:52.515Z,0.35
2024-04-11T14:50:21.208Z,0.93
2024-04-11T14:52:59.960Z,1.48
2024-04-11T14:55:31.647Z,0.95
2024-04-11T14:57:59.787Z,0.65
2024-04-11T15:00:48.264Z,0.50
2024-04-11T15:03:20.348Z,1.17
2024-04-11T15:05:52.011Z,0.60
2024-04-11T15:08:32.376Z,2.80
2024-04-11T15:11:02.466Z,0.90
2024-04-11T15:13:29.983Z,0.70
2024-04-11T15:16:11.707Z,0.10
2024-04-11T15:21:18.221Z,2.80
2024-04-11T15:23:47.638Z,0.93
2024-04-11T15:26:15.267Z,0.73
2024-04-11T15:28:48.688Z,6.75
2024-04-11T15:31:31.750Z,5.93
2024-04-11T15:34:11.707Z,4.53
2024-04-11T15:36:54.290Z,11.85
2024-04-11T15:39:30.473Z,8.63
2024-04-11T15:41:58.480Z,13.70
2024-04-11T15:44:34.334Z,9.82
2024-04-11T15:47:05.306Z,8.20
2024-04-11T15:49:34.650Z,11.10
2024-04-11T15:52:08.580Z,12.63
2024-04-11T15:54:56.853Z,6.28
2024-04-11T15:57:32.638Z,6.25
2024-04-11T16:00:12.513Z,11.45
2024-04-11T16:02:49.236Z,14.40
2024-04-11T16:05:26.381Z,14.32
2024-04-11T16:08:01.404Z,5.57
2024-04-11T16:10:29.686Z,4.97
2024-04-11T16:13:00.445Z,1.48
2024-04-11T16:15:28.442Z,1.55
2024-04-11T16:17:56.992Z,0.47
2024-04-11T16:20:24.482Z,0.75
2024-04-11T16:22:52.644Z,0.40
2024-04-11T16:25:23.000Z,1.75
2024-04-11T16:27:50.359Z,1.10
2024-04-11T16:30:30.540Z,0.98
2024-04-11T16:33:06.932Z,1.23
2024-04-11T16:35:40.667Z,3.15
2024-04-11T16:38:12.333Z,2.00
2024-04-11T16:40:41.449Z,0.93
2024-04-11T16:43:11.936Z,0.82
2024-04-11T16:45:48.900Z,1.33
2024-04-11T16:48:16.409Z,0.85
2024-04-11T16:50:47.587Z,8.55
2024-04-11T16:53:28.165Z,7.93
2024-04-11T16:55:55.803Z,7.50
2024-04-11T16:58:26.353Z,0.50
2024-04-11T17:01:07.054Z,1.95
2024-04-11T17:03:36.095Z,0.20
2024-04-11T17:06:11.870Z,0.57
2024-04-11T17:08:43.200Z,0.57
2024-04-11T17:11:20.082Z,0.50
2024-04-11T17:13:55.721Z,0.47
2024-04-11T17:16:43.320Z,1.50
2024-04-11T17:19:29.511Z,0.10
2024-04-11T17:22:00.303Z,0.10
2024-04-11T17:24:36.552Z,0.65
2024-04-11T17:27:08.665Z,1.17
2024-04-11T17:30:00.983Z,1.98
2024-04-11T17:35:19.796Z,1.50
2024-04-11T17:37:52.050Z,1.00
2024-04-11T17:40:36.619Z,0.52
2024-04-11T17:43:18.852Z,0.80
2024-04-11T17:45:57.686Z,0.30
2024-04-11T17:48:42.595Z,0.93
2024-04-11T17:51:17.840Z,1.75
2024-04-11T17:53:48.825Z,0.52
2024-04-11T17:56:24.757Z,0.75
2024-04-11T17:58:53.862Z,0.20
2024-04-11T18:01:25.175Z,1.27
2024-04-11T18:03:59.806Z,1.38
2024-04-11T18:06:40.327Z,1.65
2024-04-11T18:09:11.344Z,0.95
2024-04-11T18:11:50.611Z,0.70
2024-04-11T18:14:29.817Z,0.40
2024-04-11T18:17:01.541Z,1.40
2024-04-11T18:19:38.134Z,1.58
2024-04-11T18:22:05.794Z,0.52
2024-04-11T18:24:34.134Z,0.68
2024-04-11T18:27:05.979Z,0.65
2024-04-11T18:29:33.622Z,2.92
2024-04-11T18:32:01.364Z,1.20
2024-04-11T18:34:33.116Z,0.60
2024-04-11T18:37:02.007Z,2.35
2024-04-11T18:39:34.069Z,0.63
2024-04-11T18:44:45.217Z,4.07
2024-04-11T18:47:31.455Z,3.58
2024-04-11T18:49:59.260Z,3.40
2024-04-11T18:52:27.076Z,2.92
2024-04-11T18:54:54.633Z,5.55
2024-04-11T18:57:26.575Z,2.80
2024-04-11T18:59:54.102Z,2.38
2024-04-11T19:02:24.066Z,3.50
2024-04-11T19:04:56.037Z,6.53
2024-04-11T19:10:00.080Z,4.25
2024-04-11T19:12:32.943Z,3.63
2024-04-11T19:15:08.740Z,4.80
2024-04-11T19:17:40.594Z,3.22
2024-04-11T19:20:22.500Z,10.15
2024-04-11T19:22:57.515Z,9.02
2024-04-11T19:25:25.867Z,2.63
2024-04-11T19:27:59.627Z,5.55
2024-04-11T19:30:38.446Z,4.85
2024-04-11T19:33:21.430Z,4.82
2024-04-11T19:35:51.333Z,7.80
2024-04-11T19:38:31.850Z,6.13
2024-04-11T19:41:00.697Z,6.13
2024-04-11T19:43:31.941Z,5.28
2024-04-11T19:45:59.482Z,6.07
2024-04-11T19:48:30.964Z,10.65
2024-04-11T19:50:58.710Z,3.40
2024-04-11T19:53:42.631Z,6.63
2024-04-11T19:56:28.281Z,9.48
2024-04-11T19:59:02.520Z,4.72
2024-04-11T20:01:55.053Z,8.40
2024-04-11T20:07:02.357Z,4.95
2024-04-11T20:09:33.577Z,5.40
2024-04-11T20:12:08.341Z,5.73
2024-04-11T20:14:40.111Z,13.73
2024-04-11T20:17:26.683Z,7.25
2024-04-11T20:20:00.578Z,8.88
2024-04-11T20:22:37.651Z,6.57
2024-04-11T20:25:10.089Z,7.30
2024-04-11T20:27:48.950Z,10.63
2024-04-11T20:30:17.480Z,5.07
2024-04-11T20:32:51.144Z,11.18
2024-04-11T20:35:31.001Z,7.10
2024-04-11T20:38:01.926Z,9.25
2024-04-11T20:40:37.155Z,4.30
2024-04-11T20:43:08.372Z,8.75
2024-04-11T20:45:36.718Z,9.07
2024-04-11T20:48:17.552Z,6.35
2024-04-11T20:51:04.680Z,9.10
2024-04-11T20:53:51.989Z,6.80
2024-04-11T20:56:38.352Z,8.90
2024-04-11T20:59:24.520Z,8.90
2024-04-11T21:02:10.935Z,7.53
2024-04-11T21:04:57.296Z,4.68
2024-04-11T21:07:43.514Z,8.65
2024-04-11T21:10:29.537Z,5.45
2024-04-11T21:13:15.845Z,7.05
2024-04-11T21:16:07.646Z,7.13
2024-04-11T21:18:54.058Z,11.27
2024-04-11T21:21:40.703Z,8.27
2024-04-11T21:24:27.401Z,11.73
2024-04-11T21:27:13.684Z,4.82
2024-04-11T21:30:00.315Z,5.22
2024-04-11T21:32:46.701Z,3.30
2024-04-11T21:35:16.546Z,2.83
2024-04-11T21:37:46.747Z,5.72
2024-04-11T21:40:14.990Z,7.35
2024-04-11T21:42:43.051Z,7.00
2024-04-11T21:45:17.300Z,8.27
2024-04-11T21:47:49.875Z,6.68
2024-04-11T21:50:17.867Z,8.50
2024-04-11T21:52:52.739Z,8.07
2024-04-11T21:55:21.932Z,9.05
2024-04-11T21:57:50.046Z,3.47
2024-04-11T22:00:24.668Z,5.45
2024-04-11T22:02:55.162Z,5.93
2024-04-11T22:05:25.160Z,2.78
2024-04-11T22:08:00.307Z,4.90
2024-04-11T22:10:31.821Z,5.97
2024-04-11T22:13:00.403Z,6.45
2024-04-11T22:15:37.877Z,3.22
2024-04-11T22:18:25.893Z,5.38
2024-04-11T22:21:07.308Z,5.07
2024-04-11T22:23:35.524Z,4.03
2024-04-11T22:26:06.678Z,4.45
2024-04-11T22:28:36.345Z,4.83
2024-04-11T22:31:08.148Z,9.52
2024-04-11T22:33:40.069Z,5.25
2024-04-11T22:36:32.202Z,5.38
2024-04-11T22:39:03.271Z,3.60
2024-04-11T22:41:32.097Z,5.55
2024-04-11T22:43:59.939Z,2.97
2024-04-11T22:46:37.017Z,3.42
2024-04-11T22:49:16.769Z,2.83
2024-04-11T22:51:54.089Z,5.60
2024-04-11T22:54:24.109Z,2.70
2024-04-11T22:57:00.341Z,7.03
2024-04-11T22:59:39.185Z,4.53
2024-04-11T23:02:17.295Z,4.72
2024-04-11T23:05:03.437Z,4.97
2024-04-11T23:07:36.009Z,2.63
2024-04-11T23:10:33.272Z,2.20
2024-04-11T23:13:10.480Z,7.18
2024-04-11T23:15:49.378Z,1.75
2024-04-11T23:18:18.729Z,3.72
2024-04-11T23:20:46.659Z,4.35
2024-04-11T23:23:19.916Z,3.38
2024-04-11T23:25:52.459Z,3.58
2024-04-11T23:28:30.295Z,4.75
2024-04-11T23:30:58.237Z,4.50
2024-04-11T23:33:30.856Z,3.83
2024-04-11T23:36:07.795Z,3.38
2024-04-11T23:38:42.167Z,4.15
2024-04-11T23:41:11.830Z,4.82
2024-04-11T23:43:48.184Z,3.65
2024-04-11T23:46:36.217Z,4.30
2024-04-11T23:49:08.819Z,4.88
2024-04-11T23:51:51.019Z,5.70
2024-04-11T23:54:21.744Z,2.90
2024-04-11T23:59:41.770Z,5.18
